Pagrindinis puslapis
METAR-TAF:

METAR-TAF

Oro uostai :

Palangos oro uostas

Palanga, Lietuva

platuma: 55-55-12N, ilguma: 021-03E, Aukštis: 10 m

Dabartinis oras

Ataskaita buvo paskelbta 33 minutes, ne 10:20 UTC
Vėjas 7 kt iš Pietų
Temperatūra 11°C
Drėgmė 87%
Slėgis 1009 hPa
Matomumas 10 km arba daugiau
Su prošvaistėmis ne aukštis 1000 ft

METAR: EYPA 291020Z 17007KT 9999 BKN010 11/09 Q1009

Laikas: 12:53 (10:53 UTC)

Prognozė

Ataskaita buvo paskelbta 3 valandos ir 28 minutes, ne 07:25 UTC
Prognozė galioja nuo 29 metu 07 UTC su 30 metu 06 UTC
Vėjas 6 kt iš Pietų
Matomumas: 6000 m
Su prošvaistėmis ne aukštis 1500 ft
Tikimybė 40% :
Laikinai
nuo 29 metu 07 UTC su 29 metu 12 UTC
Su prošvaistėmis ne aukštis 1000 ft
Laikinai
nuo 29 metu 16 UTC su 29 metu 22 UTC
Vėjas 12 kt iš Pietvakarių
Matomumas: 3000 m
Išsisklaidę debesys ne aukštis 500 ft
Su prošvaistėmis ne aukštis 2000 ft, Liūtiniai kamuoliniai debesys.
lietus

TAF: EYPA 290725Z 2907/3006 17006KT 6000 BKN015 PROB40 TEMPO 2907/2912 BKN010 TEMPO 2916/2922 23012KT 3000 SHRA SCT005 BKN020CB

Orai ataskaitas ir orų prognozės (METAR, TAF).

turimą stotys yra geltonos ir raudonos taškus žemėlapyje.

Perkelti pele per norėdami pamatyti stoties vardą.

Tada spustelėkite, norėdami matyti oro stebėjimo ir prognozės.

Norėdami pakeisti žemėlapį: spustelėkite ant žalios mygtukų su juodo kryžiaus žemyn,; žalią mygtuką su brūkšneliu, jei norite nutolinti; arba žalių rodyklių gretimoms žemėlapius.


METAR-TAF: